Time;durP1;ratioP1;P1;durP2;ratioP2;P2;SDS_P1;SDS_P2;PMS_P1;PMS_P2;Temp;Humidity;BMP_temperature;BMP_pressure;BME280_temperature;BME280_humidity;BME280_pressure;Samples;Min_cycle;Max_cycle;Signal;HPM_P1;HPM_P2
2022/05/23 00:00:26;;;;;;;2.80;1.10;;;;;;;12.53;97.50;99052.38;31338290;28;20498;-74
2022/05/23 00:15:28;;;;;;;2.53;1.37;;;;;;;12.53;97.74;99049.66;31330591;28;20041;-74
2022/05/23 00:30:30;;;;;;;2.00;1.40;;;;;;;12.51;98.35;99054.81;31324521;28;20495;-74
2022/05/23 00:45:32;;;;;;;1.90;1.13;;;;;;;12.56;99.07;99052.22;31284169;28;20076;-74
2022/05/23 01:00:35;;;;;;;1.60;1.23;;;;;;;12.57;100.00;99069.31;31309087;28;20057;-74
2022/05/23 01:15:37;;;;;;;2.00;1.50;;;;;;;12.64;100.00;99085.34;31333707;28;20045;-74
2022/05/23 01:30:41;;;;;;;4.37;1.27;;;;;;;12.58;100.00;99087.91;31353237;28;20131;-74
2022/05/23 01:45:43;;;;;;;2.80;1.50;;;;;;;12.55;100.00;99080.66;31331959;28;20130;-74
2022/05/23 02:16:06;;;;;;;2.20;1.70;;;;;;;11.81;92.66;99119.91;31189682;28;20056;-74
2022/05/23 02:31:08;;;;;;;3.50;1.57;;;;;;;11.58;92.81;99150.31;31200753;28;20256;-74
2022/05/23 02:46:10;;;;;;;2.13;1.20;;;;;;;11.39;92.58;99148.75;31205316;28;20100;-74
2022/05/23 03:01:13;;;;;;;1.70;1.57;;;;;;;11.18;93.54;99163.88;31352791;28;20414;-74
2022/05/23 03:16:15;;;;;;;2.77;1.57;;;;;;;11.12;91.84;99184.66;31335223;28;20045;-74
2022/05/23 03:31:17;;;;;;;2.57;1.70;;;;;;;11.79;88.63;99176.75;31349304;28;20076;-73
2022/05/23 03:46:19;;;;;;;5.73;1.60;;;;;;;12.13;86.46;99210.34;31345410;28;20140;-74
2022/05/23 04:01:25;;;;;;;4.63;1.67;;;;;;;12.16;85.62;99226.53;31342558;28;20052;-73
2022/05/23 04:16:29;;;;;;;2.93;1.40;;;;;;;12.61;82.27;99249.59;31301680;28;20078;-75
2022/05/23 04:31:32;;;;;;;2.80;1.70;;;;;;;13.07;80.53;99258.53;31348152;28;20045;-73
2022/05/23 04:46:34;;;;;;;16.13;1.93;;;;;;;13.53;77.31;99277.59;31347244;28;20060;-73
2022/05/23 05:01:36;;;;;;;2.47;1.60;;;;;;;14.06;74.84;99271.66;31357381;28;20097;-74
2022/05/23 05:16:38;;;;;;;2.77;1.30;;;;;;;14.75;71.29;99281.63;31364172;28;20049;-75
2022/05/23 05:31:48;;;;;;;1.83;1.23;;;;;;;15.43;67.54;99281.66;31315746;28;20041;-74
2022/05/23 05:46:55;;;;;;;4.43;1.60;;;;;;;16.03;64.44;99286.66;31341357;28;20052;-76
2022/05/23 06:02:17;;;;;;;4.25;1.67;;;;;;;16.29;62.54;99273.09;31209874;28;20111;-75
2022/05/23 06:17:19;;;;;;;3.42;0.98;;;;;;;16.75;59.10;99283.44;31207832;28;20054;-74
2022/05/23 06:32:22;;;;;;;4.35;1.88;;;;;;;16.66;58.06;99279.59;31212244;28;20080;-75
2022/05/23 06:47:24;;;;;;;4.07;1.83;;;;;;;16.95;56.68;99277.94;31207467;28;20056;-75
2022/05/23 07:02:26;;;;;;;9.68;4.53;;;;;;;17.98;53.80;99277.16;31328997;28;20044;-72
2022/05/23 07:17:29;;;;;;;1.67;1.10;;;;;;;18.59;50.84;99290.50;31307585;28;20488;-76
2022/05/23 07:32:31;;;;;;;4.25;1.70;;;;;;;19.52;48.04;99301.63;31329576;28;20068;-77
2022/05/23 07:47:33;;;;;;;5.50;1.92;;;;;;;20.04;45.42;99301.88;31323323;28;20483;-75
2022/05/23 08:02:35;;;;;;;1.52;1.05;;;;;;;19.81;43.68;99301.13;31346155;28;20044;-74
2022/05/23 08:17:36;;;;;;;4.40;1.88;;;;;;;19.98;42.31;99299.13;31355157;28;20453;-73
2022/05/23 08:32:38;;;;;;;1.33;0.93;;;;;;;20.68;42.98;99291.72;31354542;28;20148;-74
2022/05/23 08:48:03;;;;;;;4.18;1.48;;;;;;;21.20;40.29;99305.56;31327117;28;20067;-75
2022/05/23 09:03:25;;;;;;;6.43;4.07;;;;;;;20.67;40.38;99307.53;31210707;28;20051;-72
2022/05/23 09:18:37;;;;;;;5.07;1.20;;;;;;;20.04;41.05;99319.16;31209329;28;20041;-73
2022/05/23 09:33:45;;;;;;;2.10;1.48;;;;;;;19.79;40.72;99324.91;31237494;28;20045;-71
2022/05/23 09:49:17;;;;;;;3.35;1.40;;;;;;;21.41;37.74;99317.75;31232380;28;20473;-77
2022/05/23 10:04:27;;;;;;;2.70;1.48;;;;;;;22.89;33.63;99313.94;31335641;28;20687;-70
2022/05/23 10:19:32;;;;;;;2.75;1.42;;;;;;;23.95;31.72;99302.06;31332655;28;20049;-74
2022/05/23 10:34:50;;;;;;;1.42;1.25;;;;;;;23.32;31.19;99317.38;31338813;28;20044;-72
2022/05/23 10:50:14;;;;;;;2.28;0.95;;;;;;;22.76;32.58;99312.53;31293849;28;20140;-71
2022/05/23 11:05:15;;;;;;;;;;;;;;;20.46;35.01;99314.59;31328608;28;20052;-70
2022/05/23 11:20:20;;;;;;;2.70;1.55;;;;;;;20.12;36.93;99322.13;31314849;28;19930;-72
2022/05/23 11:35:28;;;;;;;1.77;1.30;;;;;;;21.36;36.04;99307.47;31303670;28;20469;-70
2022/05/23 11:50:34;;;;;;;2.58;1.70;;;;;;;21.11;33.79;99305.84;31316841;28;20060;-76
2022/05/23 12:05:36;;;;;;;7.22;2.10;;;;;;;20.27;36.02;99321.88;31316125;28;20060;-75
2022/05/23 12:20:47;;;;;;;1.92;1.40;;;;;;;20.19;35.98;99323.66;31335641;28;20045;-78
2022/05/23 12:36:05;;;;;;;6.25;2.65;;;;;;;20.37;36.82;99323.13;31316017;28;20044;-74
2022/05/23 12:51:29;;;;;;;3.53;1.90;;;;;;;20.07;36.52;99340.19;31311334;28;20071;-76
2022/05/23 13:06:54;;;;;;;3.57;1.40;;;;;;;19.74;37.59;99349.19;31331116;28;20059;-72
2022/05/23 13:22:05;;;;;;;2.60;1.88;;;;;;;19.45;37.22;99354.34;31359366;28;20053;-78
2022/05/23 13:37:08;;;;;;;2.42;1.80;;;;;;;19.23;37.48;99369.56;31361255;28;20148;-76
2022/05/23 13:52:15;;;;;;;2.17;1.50;;;;;;;18.87;37.45;99375.91;31344875;28;20068;-78
2022/05/23 14:07:23;;;;;;;2.40;2.10;;;;;;;18.77;39.36;99374.59;31325682;28;20052;-74
2022/05/23 14:22:30;;;;;;;4.22;2.35;;;;;;;18.47;41.92;99379.63;31353570;28;20051;-74
2022/05/23 14:37:32;;;;;;;4.10;2.28;;;;;;;18.12;43.43;99388.13;31346458;28;20070;-75
2022/05/23 14:52:46;;;;;;;6.28;3.30;;;;;;;18.01;44.96;99399.75;31289335;28;20428;-71
2022/05/23 15:07:59;;;;;;;5.03;3.17;;;;;;;17.60;45.26;99408.06;31228382;28;20069;-71
2022/05/23 15:23:02;;;;;;;7.93;3.00;;;;;;;17.50;45.08;99420.41;31192498;28;20075;-88
2022/05/23 15:38:04;;;;;;;6.80;2.25;;;;;;;17.30;44.95;99423.94;31173584;28;20464;-78
2022/05/23 15:53:08;;;;;;;7.47;3.30;;;;;;;17.23;45.81;99435.31;31259406;28;20048;-72
2022/05/23 16:08:11;;;;;;;8.02;2.15;;;;;;;17.16;46.07;99443.94;31304164;28;20048;-76
2022/05/23 16:23:13;;;;;;;2.80;1.85;;;;;;;17.00;46.24;99456.22;31334625;28;20049;-74
2022/05/23 16:38:15;;;;;;;4.78;2.58;;;;;;;16.84;47.44;99470.41;31313905;28;20048;-73
2022/05/23 16:53:17;;;;;;;13.52;8.77;;;;;;;16.68;49.41;99479.16;31314465;28;20057;-74
2022/05/23 17:08:20;;;;;;;7.70;2.95;;;;;;;16.49;50.21;99486.78;31226006;28;20434;-73
2022/05/23 17:23:23;;;;;;;5.63;2.80;;;;;;;16.27;50.29;99486.41;31228204;28;20054;-75
2022/05/23 17:38:26;;;;;;;5.45;2.15;;;;;;;16.17;50.66;99513.13;31224238;28;20057;-74
2022/05/23 17:53:27;;;;;;;6.50;3.20;;;;;;;16.02;50.42;99524.06;31275861;28;20490;-72
2022/05/23 18:08:31;;;;;;;9.18;2.78;;;;;;;15.96;50.46;99536.88;31339299;28;20063;-75
2022/05/23 18:23:34;;;;;;;4.20;2.40;;;;;;;15.84;50.17;99551.56;31327005;28;20053;-74
2022/05/23 18:38:36;;;;;;;6.97;2.97;;;;;;;15.77;50.94;99562.88;31326987;28;20530;-74
2022/05/23 18:53:38;;;;;;;8.80;4.23;;;;;;;15.66;51.66;99568.09;31319367;28;20050;-73
2022/05/23 19:08:41;;;;;;;4.03;1.90;;;;;;;15.65;52.66;99569.31;31330662;28;20049;-73
2022/05/23 19:23:46;;;;;;;4.33;2.17;;;;;;;15.57;53.43;99581.84;31331910;28;20057;-74
2022/05/23 19:38:48;;;;;;;5.63;2.30;;;;;;;15.40;54.44;99594.34;31315611;28;20053;-74
2022/05/23 19:53:50;;;;;;;10.17;3.60;;;;;;;15.27;55.40;99603.53;31326749;28;20059;-73
2022/05/23 20:08:52;;;;;;;13.10;3.07;;;;;;;15.14;56.20;99611.16;31323249;28;20068;-73
2022/05/23 20:23:54;;;;;;;7.93;3.07;;;;;;;14.79;57.54;99612.78;31326463;28;20526;-72
2022/05/23 20:39:03;;;;;;;5.03;1.73;;;;;;;14.41;59.61;99616.03;31312923;28;20092;-73
2022/05/23 20:54:05;;;;;;;2.23;1.83;;;;;;;14.06;61.46;99627.19;31333003;28;20049;-73
2022/05/23 21:09:07;;;;;;;2.37;1.70;;;;;;;13.78;62.37;99647.44;31296976;28;20044;-73
2022/05/23 21:24:09;;;;;;;4.20;2.90;;;;;;;13.57;62.76;99649.06;31337875;28;20056;-72
2022/05/23 21:39:11;;;;;;;4.27;1.97;;;;;;;13.57;63.08;99638.91;31346728;28;20063;-73
2022/05/23 21:54:15;;;;;;;3.07;2.30;;;;;;;13.46;63.63;99641.31;31359714;28;20376;-73
2022/05/23 22:09:19;;;;;;;4.47;2.00;;;;;;;13.25;65.24;99639.38;31337818;28;20687;-73
2022/05/23 22:24:22;;;;;;;4.27;2.00;;;;;;;13.01;66.17;99651.91;31364778;28;20044;-73
2022/05/23 22:39:24;;;;;;;8.73;3.37;;;;;;;12.86;66.97;99646.25;31332461;28;20048;-72
2022/05/23 22:54:26;;;;;;;8.30;4.07;;;;;;;12.79;67.00;99652.69;31361997;28;20052;-71
2022/05/23 23:09:32;;;;;;;5.33;3.23;;;;;;;12.65;66.62;99669.56;31333623;28;20049;-74
2022/05/23 23:24:34;;;;;;;5.83;2.87;;;;;;;12.66;65.34;99673.81;31338697;28;20061;-72
2022/05/23 23:39:36;;;;;;;6.73;3.33;;;;;;;12.58;64.84;99681.44;31344966;28;20049;-73
2022/05/23 23:54:37;;;;;;;5.20;2.90;;;;;;;12.35;64.36;99679.13;31369534;28;20395;-72
